Time,TemperatureF,DewpointF,PressureIn,WindDirection,WindDirectionDegrees,WindSpeedMPH,WindSpeedGustMPH,Humidity,HourlyPrecipIn,Conditions,Clouds,dailyrainin,SoftwareType,DateUTC
2013-10-08 00:05:00,53.6,48.3,29.05,WNW,296,0.0,1.8,82,0.00,,,-99.99,HOBO +U30 +Weather +,2013-10-08 04:05:00,
2013-10-08 00:16:00,53.4,48.2,29.05,WNW,296,0.7,1.8,82,0.00,,,-99.99,HOBO +U30 +Weather +,2013-10-08 04:16:00,
2013-10-08 00:25:00,52.7,48.1,29.06,WNW,296,0.0,0.7,84,0.00,,,-99.99,HOBO +U30 +Weather +,2013-10-08 04:25:00,
2013-10-08 00:35:00,52.3,48.0,29.06,WNW,296,0.0,0.0,85,0.00,,,-99.99,HOBO +U30 +Weather +,2013-10-08 04:35:00,
2013-10-08 00:45:00,51.8,47.7,29.06,WNW,296,0.0,0.0,85,0.00,,,-99.99,HOBO +U30 +Weather +,2013-10-08 04:45:00,
2013-10-08 00:55:00,51.4,47.5,29.06,WNW,296,0.0,0.0,86,0.00,,,-99.99,HOBO +U30 +Weather +,2013-10-08 04:55:00,
2013-10-08 01:05:00,51.8,47.4,29.06,WNW,296,0.0,0.0,85,0.00,,,-99.99,HOBO +U30 +Weather +,2013-10-08 05:05:00,
2013-10-08 01:15:00,51.4,47.3,29.06,WNW,296,0.0,0.0,85,0.00,,,-99.99,HOBO +U30 +Weather +,2013-10-08 05:15:00,
2013-10-08 01:25:00,51.1,47.1,29.06,WNW,296,0.0,0.0,86,0.00,,,-99.99,HOBO +U30 +Weather +,2013-10-08 05:25:00,
2013-10-08 01:35:00,52.2,47.8,29.06,WNW,296,0.0,0.0,84,0.00,,,-99.99,HOBO +U30 +Weather +,2013-10-08 05:35:00,
2013-10-08 01:36:00,51.6,47.5,29.06,WNW,296,0.0,0.0,85,0.00,,,-99.99,HOBO +U30 +Weather +,2013-10-08 05:36:00,
2013-10-08 01:45:00,52.3,47.9,29.06,WNW,296,0.0,0.0,84,0.00,,,-99.99,HOBO +U30 +Weather +,2013-10-08 05:45:00,
2013-10-08 01:55:00,51.2,47.8,29.07,WNW,295,0.0,1.8,88,0.00,,,-99.99,HOBO +U30 +Weather +,2013-10-08 05:55:00,
2013-10-08 02:05:00,50.6,48.0,29.07,WNW,295,0.0,0.0,90,0.00,,,-99.99,HOBO +U30 +Weather +,2013-10-08 06:05:00,
2013-10-08 02:15:00,51.0,48.1,29.07,WNW,295,0.0,0.0,89,0.00,,,-99.99,HOBO +U30 +Weather +,2013-10-08 06:15:00,
2013-10-08 02:25:00,50.9,47.2,29.07,WNW,295,0.0,0.0,86,0.00,,,-99.99,HOBO +U30 +Weather +,2013-10-08 06:25:00,
2013-10-08 02:35:00,51.0,47.2,29.07,WNW,295,0.0,0.0,86,0.00,,,-99.99,HOBO +U30 +Weather +,2013-10-08 06:35:00,
2013-10-08 02:45:00,51.3,47.6,29.07,WNW,295,0.0,0.0,87,0.00,,,-99.99,HOBO +U30 +Weather +,2013-10-08 06:45:00,
2013-10-08 02:55:00,50.5,47.4,29.07,WNW,295,0.0,0.0,89,0.00,,,-99.99,HOBO +U30 +Weather +,2013-10-08 06:55:00,
2013-10-08 03:05:00,50.4,46.8,29.08,WNW,295,0.0,0.0,87,0.00,,,-99.99,HOBO +U30 +Weather +,2013-10-08 07:05:00,
2013-10-08 03:15:00,50.8,47.0,29.07,WNW,295,0.0,0.0,86,0.00,,,-99.99,HOBO +U30 +Weather +,2013-10-08 07:15:00,
2013-10-08 03:25:00,51.0,47.2,29.07,WNW,295,0.0,1.1,86,0.00,,,-99.99,HOBO +U30 +Weather +,2013-10-08 07:25:00,
2013-10-08 03:35:00,50.9,47.1,29.07,North,351,0.0,1.8,86,0.00,,,-99.99,HOBO +U30 +Weather +,2013-10-08 07:35:00,
2013-10-08 03:36:00,50.8,47.1,29.07,North,351,0.0,1.1,86,0.00,,,-99.99,HOBO +U30 +Weather +,2013-10-08 07:36:00,
2013-10-08 03:45:00,50.8,47.1,29.07,North,351,0.0,1.8,86,0.00,,,-99.99,HOBO +U30 +Weather +,2013-10-08 07:45:00,
2013-10-08 03:55:00,50.8,47.1,29.07,North,351,0.0,1.1,87,0.00,,,-99.99,HOBO +U30 +Weather +,2013-10-08 07:55:00,
2013-10-08 03:56:00,50.7,47.0,29.07,North,351,0.0,1.8,87,0.00,,,-99.99,HOBO +U30 +Weather +,2013-10-08 07:56:00,
2013-10-08 04:05:00,50.6,47.0,29.07,North,351,0.0,0.0,87,0.00,,,-99.99,HOBO +U30 +Weather +,2013-10-08 08:05:00,
2013-10-08 04:15:00,50.1,46.9,29.07,North,351,0.0,1.1,88,0.00,,,-99.99,HOBO +U30 +Weather +,2013-10-08 08:15:00,
2013-10-08 04:25:00,50.1,47.0,29.07,North,351,1.1,2.2,89,0.00,,,-99.99,HOBO +U30 +Weather +,2013-10-08 08:25:00,
2013-10-08 04:35:00,49.7,46.8,29.08,North,351,0.7,1.8,89,0.00,,,-99.99,HOBO +U30 +Weather +,2013-10-08 08:35:00,
2013-10-08 04:45:00,49.8,46.8,29.08,North,351,0.7,1.8,89,0.00,,,-99.99,HOBO +U30 +Weather +,2013-10-08 08:45:00,
2013-10-08 04:46:00,49.7,46.8,29.08,North,351,0.7,1.8,89,0.00,,,-99.99,HOBO +U30 +Weather +,2013-10-08 08:46:00,
2013-10-08 04:55:00,50.0,47.0,29.08,North,351,1.8,3.4,89,0.00,,,-99.99,HOBO +U30 +Weather +,2013-10-08 08:55:00,
2013-10-08 05:05:00,49.4,46.6,29.08,North,0,1.8,2.9,90,0.00,,,-99.99,HOBO +U30 +Weather +,2013-10-08 09:05:00,
2013-10-08 05:15:00,49.0,46.5,29.08,North,6,2.2,4.0,90,0.00,,,-99.99,HOBO +U30 +Weather +,2013-10-08 09:15:00,
2013-10-08 05:25:00,48.4,46.3,29.08,NNE,15,2.2,4.0,92,0.00,,,-99.99,HOBO +U30 +Weather +,2013-10-08 09:25:00,
2013-10-08 05:35:00,48.4,46.5,29.09,NNE,22,3.4,4.5,93,0.00,,,-99.99,HOBO +U30 +Weather +,2013-10-08 09:35:00,
2013-10-08 05:45:00,47.9,46.5,29.08,NNE,20,4.0,5.1,94,0.00,,,-99.99,HOBO +U30 +Weather +,2013-10-08 09:45:00,
2013-10-08 05:55:00,46.6,45.5,29.09,NNE,14,4.0,5.6,96,0.00,,,-99.99,HOBO +U30 +Weather +,2013-10-08 09:55:00,
2013-10-08 05:56:00,47.0,45.8,29.08,NNE,18,3.4,5.1,95,0.00,,,-99.99,HOBO +U30 +Weather +,2013-10-08 09:56:00,
2013-10-08 06:05:00,46.5,45.4,29.09,NNE,13,4.5,6.3,96,0.00,,,-99.99,HOBO +U30 +Weather +,2013-10-08 10:05:00,
2013-10-08 06:15:00,45.3,44.3,29.09,North,6,4.5,6.7,96,0.00,,,-99.99,HOBO +U30 +Weather +,2013-10-08 10:15:00,
2013-10-08 06:25:00,44.7,43.8,29.10,North,1,3.4,5.6,96,0.00,,,-99.99,HOBO +U30 +Weather +,2013-10-08 10:25:00,
2013-10-08 06:35:00,45.4,44.7,29.10,North,355,2.2,5.1,97,0.00,,,-99.99,HOBO +U30 +Weather +,2013-10-08 10:35:00,
2013-10-08 06:45:00,46.5,45.7,29.11,North,1,3.4,5.1,97,0.00,,,-99.99,HOBO +U30 +Weather +,2013-10-08 10:45:00,
2013-10-08 06:55:00,47.2,46.0,29.11,North,10,3.4,5.1,95,0.00,,,-99.99,HOBO +U30 +Weather +,2013-10-08 10:55:00,
2013-10-08 07:05:00,47.3,45.8,29.11,NNE,13,2.9,4.5,94,0.00,,,-99.99,HOBO +U30 +Weather +,2013-10-08 11:05:00,
2013-10-08 07:15:00,48.1,46.2,29.12,NNE,20,2.9,4.5,93,0.00,,,-99.99,HOBO +U30 +Weather +,2013-10-08 11:15:00,
2013-10-08 07:16:00,47.9,46.1,29.11,NNE,18,2.9,4.0,93,0.00,,,-99.99,HOBO +U30 +Weather +,2013-10-08 11:16:00,
2013-10-08 07:25:00,48.0,46.0,29.12,NNE,22,2.9,4.5,92,0.00,,,-99.99,HOBO +U30 +Weather +,2013-10-08 11:25:00,
2013-10-08 07:35:00,47.8,45.8,29.12,NNE,32,3.4,5.1,92,0.00,,,-99.99,HOBO +U30 +Weather +,2013-10-08 11:35:00,
2013-10-08 07:45:00,48.1,45.8,29.12,NNE,27,4.0,5.6,91,0.00,,,-99.99,HOBO +U30 +Weather +,2013-10-08 11:45:00,
2013-10-08 07:55:00,48.2,45.7,29.12,NNE,21,5.1,6.7,90,0.00,,,-99.99,HOBO +U30 +Weather +,2013-10-08 11:55:00,
2013-10-08 08:05:00,47.9,45.4,29.12,NNE,18,5.6,7.4,91,0.00,,,-99.99,HOBO +U30 +Weather +,2013-10-08 12:05:00,
2013-10-08 08:15:00,47.5,45.2,29.13,NNE,21,6.3,7.8,91,0.00,,,-99.99,HOBO +U30 +Weather +,2013-10-08 12:15:00,
2013-10-08 08:25:00,47.4,45.4,29.13,NNE,27,5.1,7.4,92,0.00,,,-99.99,HOBO +U30 +Weather +,2013-10-08 12:25:00,
2013-10-08 08:35:00,47.8,45.7,29.13,NNE,29,5.6,7.4,92,0.00,,,-99.99,HOBO +U30 +Weather +,2013-10-08 12:35:00,
2013-10-08 08:45:00,48.5,46.6,29.14,NE,38,4.5,6.3,92,0.00,,,-99.99,HOBO +U30 +Weather +,2013-10-08 12:45:00,
2013-10-08 08:46:00,48.1,46.1,29.14,NE,39,4.5,6.3,92,0.00,,,-99.99,HOBO +U30 +Weather +,2013-10-08 12:46:00,
2013-10-08 08:55:00,48.9,46.9,29.14,NE,45,4.0,6.7,92,0.00,,,-99.99,HOBO +U30 +Weather +,2013-10-08 12:55:00,
2013-10-08 09:05:00,49.3,47.1,29.15,NE,44,5.1,7.8,92,0.00,,,-99.99,HOBO +U30 +Weather +,2013-10-08 13:05:00,
2013-10-08 09:15:00,49.8,47.6,29.15,NE,48,5.1,6.7,91,0.00,,,-99.99,HOBO +U30 +Weather +,2013-10-08 13:15:00,
2013-10-08 09:25:00,50.0,47.7,29.15,NE,51,6.3,8.9,91,0.00,,,-99.99,HOBO +U30 +Weather +,2013-10-08 13:25:00,
2013-10-08 09:35:00,50.5,48.0,29.15,NE,49,6.3,8.5,91,0.00,,,-99.99,HOBO +U30 +Weather +,2013-10-08 13:35:00,
2013-10-08 09:45:00,51.4,48.9,29.15,NE,46,5.6,10.1,91,0.00,,,-99.99,HOBO +U30 +Weather +,2013-10-08 13:45:00,
2013-10-08 09:55:00,52.1,49.4,29.16,NE,48,6.3,8.9,90,0.00,,,-99.99,HOBO +U30 +Weather +,2013-10-08 13:55:00,
2013-10-08 10:05:00,53.2,50.3,29.16,NE,53,5.6,8.5,89,0.00,,,-99.99,HOBO +U30 +Weather +,2013-10-08 14:05:00,
2013-10-08 10:15:00,54.1,50.8,29.16,NE,53,6.3,9.6,88,0.00,,,-99.99,HOBO +U30 +Weather +,2013-10-08 14:15:00,
2013-10-08 10:25:00,54.6,51.0,29.16,NE,51,6.7,9.6,87,0.00,,,-99.99,HOBO +U30 +Weather +,2013-10-08 14:25:00,
2013-10-08 10:35:00,55.5,51.9,29.16,NE,49,5.1,8.5,87,0.00,,,-99.99,HOBO +U30 +Weather +,2013-10-08 14:35:00,
2013-10-08 10:45:00,56.8,52.7,29.16,ENE,60,5.6,10.1,86,0.00,,,-99.99,HOBO +U30 +Weather +,2013-10-08 14:45:00,
2013-10-08 10:55:00,57.8,52.9,29.16,ENE,67,6.3,11.2,83,0.00,,,-99.99,HOBO +U30 +Weather +,2013-10-08 14:55:00,
2013-10-08 11:05:00,58.0,52.4,29.16,East,83,6.7,11.2,81,0.00,,,-99.99,HOBO +U30 +Weather +,2013-10-08 15:05:00,
2013-10-08 11:15:00,58.6,53.2,29.16,East,80,6.3,11.2,82,0.00,,,-99.99,HOBO +U30 +Weather +,2013-10-08 15:15:00,
2013-10-08 11:25:00,58.9,52.8,29.16,ENE,76,6.7,11.2,80,0.00,,,-99.99,HOBO +U30 +Weather +,2013-10-08 15:25:00,
2013-10-08 11:35:00,59.5,52.9,29.16,ENE,77,6.7,12.3,78,0.00,,,-99.99,HOBO +U30 +Weather +,2013-10-08 15:35:00,
2013-10-08 11:45:00,60.1,53.1,29.16,East,84,5.1,8.9,77,0.00,,,-99.99,HOBO +U30 +Weather +,2013-10-08 15:45:00,
2013-10-08 11:55:00,59.5,51.6,29.16,East,88,5.1,9.6,75,0.00,,,-99.99,HOBO +U30 +Weather +,2013-10-08 15:55:00,
2013-10-08 11:56:00,60.0,52.5,29.16,ESE,111,7.8,13.0,76,0.00,,,-99.99,HOBO +U30 +Weather +,2013-10-08 15:56:00,
2013-10-08 12:05:00,59.8,51.7,29.16,East,100,5.1,9.6,74,0.00,,,-99.99,HOBO +U30 +Weather +,2013-10-08 16:05:00,
2013-10-08 12:06:00,59.9,52.2,29.16,East,81,4.0,11.9,75,0.00,,,-99.99,HOBO +U30 +Weather +,2013-10-08 16:06:00,
2013-10-08 12:15:00,61.2,53.7,29.15,ESE,111,5.1,8.5,76,0.00,,,-99.99,HOBO +U30 +Weather +,2013-10-08 16:15:00,
2013-10-08 12:25:00,61.1,52.8,29.15,ESE,114,6.7,13.4,74,0.00,,,-99.99,HOBO +U30 +Weather +,2013-10-08 16:25:00,
2013-10-08 12:35:00,61.8,53.2,29.15,East,83,5.1,15.9,73,0.00,,,-99.99,HOBO +U30 +Weather +,2013-10-08 16:35:00,
2013-10-08 12:46:00,61.8,52.7,29.15,ENE,59,7.4,12.3,72,0.00,,,-99.99,HOBO +U30 +Weather +,2013-10-08 16:46:00,
2013-10-08 12:55:00,62.0,52.7,29.15,East,94,6.3,12.3,71,0.00,,,-99.99,HOBO +U30 +Weather +,2013-10-08 16:55:00,
2013-10-08 12:56:00,61.8,52.3,29.15,ESE,105,6.7,12.3,71,0.00,,,-99.99,HOBO +U30 +Weather +,2013-10-08 16:56:00,
2013-10-08 13:05:00,62.3,53.1,29.15,ENE,74,6.3,11.9,71,0.00,,,-99.99,HOBO +U30 +Weather +,2013-10-08 17:05:00,
2013-10-08 13:15:00,63.1,53.4,29.14,ESE,107,5.6,10.7,70,0.00,,,-99.99,HOBO +U30 +Weather +,2013-10-08 17:15:00,
2013-10-08 13:25:00,62.5,52.1,29.14,East,97,8.5,13.4,68,0.00,,,-99.99,HOBO +U30 +Weather +,2013-10-08 17:25:00,
2013-10-08 13:35:00,63.3,52.9,29.14,ENE,66,5.1,14.5,68,0.00,,,-99.99,HOBO +U30 +Weather +,2013-10-08 17:35:00,
2013-10-08 13:45:00,63.3,51.8,29.13,East,79,8.5,14.5,66,0.00,,,-99.99,HOBO +U30 +Weather +,2013-10-08 17:45:00,
2013-10-08 13:55:00,64.2,52.9,29.13,East,93,7.4,12.3,66,0.00,,,-99.99,HOBO +U30 +Weather +,2013-10-08 17:55:00,
2013-10-08 14:05:00,63.6,52.0,29.12,NE,55,6.7,13.0,65,0.00,,,-99.99,HOBO +U30 +Weather +,2013-10-08 18:05:00,
2013-10-08 14:06:00,64.0,52.6,29.13,East,80,4.5,11.2,66,0.00,,,-99.99,HOBO +U30 +Weather +,2013-10-08 18:06:00,
2013-10-08 14:16:00,64.2,53.3,29.13,East,98,6.7,11.9,67,0.00,,,-99.99,HOBO +U30 +Weather +,2013-10-08 18:16:00,
2013-10-08 14:25:00,64.8,53.7,29.12,ESE,119,5.6,15.9,67,0.00,,,-99.99,HOBO +U30 +Weather +,2013-10-08 18:25:00,
2013-10-08 14:35:00,64.5,52.7,29.11,ESE,102,5.6,11.9,65,0.00,,,-99.99,HOBO +U30 +Weather +,2013-10-08 18:35:00,
2013-10-08 14:45:00,64.7,52.7,29.11,SE,126,7.8,13.0,65,0.00,,,-99.99,HOBO +U30 +Weather +,2013-10-08 18:45:00,
2013-10-08 14:55:00,64.7,52.8,29.11,SE,133,4.5,8.5,65,0.00,,,-99.99,HOBO +U30 +Weather +,2013-10-08 18:55:00,
2013-10-08 15:06:00,64.7,52.6,29.11,SE,125,7.8,10.7,64,0.00,,,-99.99,HOBO +U30 +Weather +,2013-10-08 19:06:00,
2013-10-08 15:15:00,64.9,52.5,29.11,East,90,4.0,9.6,64,0.00,,,-99.99,HOBO +U30 +Weather +,2013-10-08 19:15:00,
2013-10-08 15:25:00,65.2,52.9,29.10,ESE,117,8.5,13.4,64,0.00,,,-99.99,HOBO +U30 +Weather +,2013-10-08 19:25:00,
2013-10-08 15:35:00,64.8,52.0,29.11,East,100,4.5,8.5,63,0.00,,,-99.99,HOBO +U30 +Weather +,2013-10-08 19:35:00,
2013-10-08 15:45:00,65.8,53.1,29.10,ESE,118,5.6,8.9,63,0.00,,,-99.99,HOBO +U30 +Weather +,2013-10-08 19:45:00,
2013-10-08 15:55:00,65.3,51.9,29.10,East,95,3.4,7.4,61,0.00,,,-99.99,HOBO +U30 +Weather +,2013-10-08 19:55:00,
2013-10-08 16:05:00,65.4,52.1,29.10,ESE,117,6.3,9.6,62,0.00,,,-99.99,HOBO +U30 +Weather +,2013-10-08 20:05:00,
2013-10-08 16:15:00,65.6,52.4,29.10,ESE,122,6.3,10.7,62,0.00,,,-99.99,HOBO +U30 +Weather +,2013-10-08 20:15:00,
2013-10-08 16:25:00,65.6,52.3,29.10,ESE,119,4.0,9.6,62,0.00,,,-99.99,HOBO +U30 +Weather +,2013-10-08 20:25:00,
2013-10-08 16:35:00,66.0,51.6,29.09,NE,55,5.1,10.7,59,0.00,,,-99.99,HOBO +U30 +Weather +,2013-10-08 20:35:00,
2013-10-08 16:36:00,65.6,51.7,29.10,East,91,6.7,11.9,60,0.00,,,-99.99,HOBO +U30 +Weather +,2013-10-08 20:36:00,
2013-10-08 16:46:00,65.8,51.5,29.09,ENE,60,4.0,9.6,59,0.00,,,-99.99,HOBO +U30 +Weather +,2013-10-08 20:46:00,
2013-10-08 16:55:00,66.3,51.9,29.09,ENE,72,4.5,8.5,59,0.00,,,-99.99,HOBO +U30 +Weather +,2013-10-08 20:55:00,
2013-10-08 17:05:00,66.3,52.2,29.09,NE,39,5.1,7.8,60,0.00,,,-99.99,HOBO +U30 +Weather +,2013-10-08 21:05:00,
2013-10-08 17:06:00,66.6,52.7,29.09,ENE,65,4.5,8.9,60,0.00,,,-99.99,HOBO +U30 +Weather +,2013-10-08 21:06:00,
2013-10-08 17:15:00,66.7,52.5,29.09,NE,51,4.5,7.4,60,0.00,,,-99.99,HOBO +U30 +Weather +,2013-10-08 21:15:00,
2013-10-08 17:25:00,65.3,50.9,29.09,East,90,6.3,10.7,59,0.00,,,-99.99,HOBO +U30 +Weather +,2013-10-08 21:25:00,
2013-10-08 17:35:00,66.3,52.2,29.09,ENE,69,2.9,7.4,60,0.00,,,-99.99,HOBO +U30 +Weather +,2013-10-08 21:35:00,
2013-10-08 17:45:00,65.9,51.1,29.09,ENE,73,4.5,8.5,58,0.00,,,-99.99,HOBO +U30 +Weather +,2013-10-08 21:45:00,
2013-10-08 17:55:00,65.7,51.3,29.09,NE,48,6.3,9.6,59,0.00,,,-99.99,HOBO +U30 +Weather +,2013-10-08 21:55:00,
2013-10-08 18:05:00,65.1,50.8,29.09,ENE,77,4.0,7.4,59,0.00,,,-99.99,HOBO +U30 +Weather +,2013-10-08 22:05:00,
2013-10-08 18:15:00,65.3,51.4,29.09,NE,48,4.5,6.3,60,0.00,,,-99.99,HOBO +U30 +Weather +,2013-10-08 22:15:00,
2013-10-08 18:25:00,64.7,50.7,29.08,ENE,66,6.3,10.7,60,0.00,,,-99.99,HOBO +U30 +Weather +,2013-10-08 22:25:00,
2013-10-08 18:35:00,64.5,50.9,29.09,ENE,60,4.5,7.4,61,0.00,,,-99.99,HOBO +U30 +Weather +,2013-10-08 22:35:00,
2013-10-08 18:45:00,64.0,50.7,29.09,ENE,60,5.1,8.9,61,0.00,,,-99.99,HOBO +U30 +Weather +,2013-10-08 22:45:00,
2013-10-08 18:55:00,63.0,50.5,29.09,ENE,70,3.4,6.3,63,0.00,,,-99.99,HOBO +U30 +Weather +,2013-10-08 22:55:00,
2013-10-08 18:56:00,63.4,50.5,29.09,ENE,70,3.4,6.7,62,0.00,,,-99.99,HOBO +U30 +Weather +,2013-10-08 22:56:00,
2013-10-08 19:05:00,62.7,50.1,29.09,ENE,58,3.4,6.3,63,0.00,,,-99.99,HOBO +U30 +Weather +,2013-10-08 23:05:00,
2013-10-08 19:15:00,62.0,49.7,29.09,NE,53,4.5,6.7,64,0.00,,,-99.99,HOBO +U30 +Weather +,2013-10-08 23:15:00,
2013-10-08 19:25:00,61.1,49.7,29.09,ENE,72,3.4,5.6,66,0.00,,,-99.99,HOBO +U30 +Weather +,2013-10-08 23:25:00,
2013-10-08 19:35:00,60.9,49.7,29.09,ENE,74,2.9,5.6,66,0.00,,,-99.99,HOBO +U30 +Weather +,2013-10-08 23:35:00,
2013-10-08 19:45:00,60.8,49.7,29.09,ENE,74,3.4,7.8,66,0.00,,,-99.99,HOBO +U30 +Weather +,2013-10-08 23:45:00,
2013-10-08 19:55:00,60.7,49.6,29.10,ENE,73,4.0,7.8,66,0.00,,,-99.99,HOBO +U30 +Weather +,2013-10-08 23:55:00,
2013-10-08 20:05:00,60.9,49.8,29.09,ENE,77,5.1,8.5,66,0.00,,,-99.99,HOBO +U30 +Weather +,2013-10-09 00:05:00,
2013-10-08 20:15:00,60.7,49.7,29.10,ENE,73,4.5,8.5,67,0.00,,,-99.99,HOBO +U30 +Weather +,2013-10-09 00:15:00,
2013-10-08 20:25:00,60.3,49.5,29.10,ENE,62,4.5,7.8,67,0.00,,,-99.99,HOBO +U30 +Weather +,2013-10-09 00:25:00,
2013-10-08 20:35:00,59.7,49.4,29.10,ENE,59,4.5,7.4,68,0.00,,,-99.99,HOBO +U30 +Weather +,2013-10-09 00:35:00,
2013-10-08 20:45:00,59.8,49.8,29.10,ENE,72,5.6,10.1,69,0.00,,,-99.99,HOBO +U30 +Weather +,2013-10-09 00:45:00,
2013-10-08 20:55:00,59.8,49.7,29.10,ENE,74,6.3,11.2,69,0.00,,,-99.99,HOBO +U30 +Weather +,2013-10-09 00:55:00,
2013-10-08 21:05:00,60.0,49.7,29.10,East,84,6.7,9.6,68,0.00,,,-99.99,HOBO +U30 +Weather +,2013-10-09 01:05:00,
2013-10-08 21:15:00,59.6,49.5,29.10,East,80,6.7,10.7,69,0.00,,,-99.99,HOBO +U30 +Weather +,2013-10-09 01:15:00,
2013-10-08 21:25:00,59.0,49.2,29.10,East,87,6.3,8.9,69,0.00,,,-99.99,HOBO +U30 +Weather +,2013-10-09 01:25:00,
2013-10-08 21:35:00,58.5,49.1,29.10,East,87,6.3,10.7,70,0.00,,,-99.99,HOBO +U30 +Weather +,2013-10-09 01:35:00,
2013-10-08 21:36:00,58.6,49.0,29.10,East,86,6.3,9.6,70,0.00,,,-99.99,HOBO +U30 +Weather +,2013-10-09 01:36:00,
2013-10-08 21:45:00,58.6,49.1,29.11,East,90,6.7,10.7,70,0.00,,,-99.99,HOBO +U30 +Weather +,2013-10-09 01:45:00,
2013-10-08 21:55:00,58.5,49.0,29.10,East,94,6.3,10.1,70,0.00,,,-99.99,HOBO +U30 +Weather +,2013-10-09 01:55:00,
2013-10-08 22:05:00,58.0,48.8,29.11,East,95,5.6,8.9,71,0.00,,,-99.99,HOBO +U30 +Weather +,2013-10-09 02:05:00,
2013-10-08 22:15:00,58.0,48.8,29.11,East,97,6.3,10.1,71,0.00,,,-99.99,HOBO +U30 +Weather +,2013-10-09 02:15:00,
2013-10-08 22:25:00,57.5,48.7,29.10,East,94,5.6,8.9,72,0.00,,,-99.99,HOBO +U30 +Weather +,2013-10-09 02:25:00,
2013-10-08 22:35:00,57.2,48.6,29.10,East,93,5.1,8.5,72,0.00,,,-99.99,HOBO +U30 +Weather +,2013-10-09 02:35:00,
2013-10-08 22:45:00,57.1,48.6,29.11,East,88,5.6,8.9,73,0.00,,,-99.99,HOBO +U30 +Weather +,2013-10-09 02:45:00,
2013-10-08 22:55:00,56.2,48.2,29.11,East,100,5.1,8.9,74,0.00,,,-99.99,HOBO +U30 +Weather +,2013-10-09 02:55:00,
2013-10-08 23:05:00,55.7,48.2,29.11,ESE,102,4.5,8.5,75,0.00,,,-99.99,HOBO +U30 +Weather +,2013-10-09 03:05:00,
2013-10-08 23:15:00,55.6,48.3,29.12,East,100,4.5,7.4,76,0.00,,,-99.99,HOBO +U30 +Weather +,2013-10-09 03:15:00,
2013-10-08 23:25:00,55.5,48.3,29.11,East,95,4.5,7.8,76,0.00,,,-99.99,HOBO +U30 +Weather +,2013-10-09 03:25:00,
2013-10-08 23:35:00,55.0,48.1,29.11,East,100,4.0,6.7,77,0.00,,,-99.99,HOBO +U30 +Weather +,2013-10-09 03:35:00,
2013-10-08 23:45:00,54.9,48.1,29.11,East,100,4.0,6.3,77,0.00,,,-99.99,HOBO +U30 +Weather +,2013-10-09 03:45:00,
2013-10-08 23:55:00,54.1,47.8,29.11,ESE,104,4.0,6.3,79,0.00,,,-99.99,HOBO +U30 +Weather +,2013-10-09 03:55:00,